sensor_id;sensor_type;location;lat;lon;timestamp;P1;durP1;ratioP1;P2;durP2;ratioP2
22248;SDS011;67538;52.180;5.646;2024-02-26T00:00:41;11.67;;;8.23;;
22248;SDS011;67538;52.180;5.646;2024-02-26T00:03:10;12.60;;;8.37;;
22248;SDS011;67538;52.180;5.646;2024-02-26T00:05:37;10.97;;;8.23;;
22248;SDS011;67538;52.180;5.646;2024-02-26T00:08:04;12.37;;;8.33;;
22248;SDS011;67538;52.180;5.646;2024-02-26T00:10:32;10.80;;;8.27;;
22248;SDS011;67538;52.180;5.646;2024-02-26T00:12:59;13.77;;;8.60;;
22248;SDS011;67538;52.180;5.646;2024-02-26T00:15:26;13.70;;;8.60;;
22248;SDS011;67538;52.180;5.646;2024-02-26T00:17:54;12.20;;;8.50;;
22248;SDS011;67538;52.180;5.646;2024-02-26T00:20:22;14.20;;;8.60;;
22248;SDS011;67538;52.180;5.646;2024-02-26T00:22:49;10.87;;;8.70;;
22248;SDS011;67538;52.180;5.646;2024-02-26T00:25:17;10.63;;;8.43;;
22248;SDS011;67538;52.180;5.646;2024-02-26T00:27:44;13.80;;;9.03;;
22248;SDS011;67538;52.180;5.646;2024-02-26T00:30:11;11.97;;;8.70;;
22248;SDS011;67538;52.180;5.646;2024-02-26T00:32:38;12.43;;;8.67;;
22248;SDS011;67538;52.180;5.646;2024-02-26T00:35:06;13.83;;;8.77;;
22248;SDS011;67538;52.180;5.646;2024-02-26T00:37:36;13.43;;;8.73;;
22248;SDS011;67538;52.180;5.646;2024-02-26T00:40:03;13.07;;;8.97;;
22248;SDS011;67538;52.180;5.646;2024-02-26T00:42:31;14.57;;;9.20;;
22248;SDS011;67538;52.180;5.646;2024-02-26T00:44:58;12.63;;;9.00;;
22248;SDS011;67538;52.180;5.646;2024-02-26T00:47:25;12.50;;;8.77;;
22248;SDS011;67538;52.180;5.646;2024-02-26T00:49:52;11.63;;;9.20;;
22248;SDS011;67538;52.180;5.646;2024-02-26T00:52:20;12.20;;;9.13;;
22248;SDS011;67538;52.180;5.646;2024-02-26T00:54:48;13.30;;;9.47;;
22248;SDS011;67538;52.180;5.646;2024-02-26T00:57:15;14.87;;;8.90;;
22248;SDS011;67538;52.180;5.646;2024-02-26T00:59:42;16.43;;;8.90;;
22248;SDS011;67538;52.180;5.646;2024-02-26T01:02:09;14.07;;;9.20;;
22248;SDS011;67538;52.180;5.646;2024-02-26T01:04:36;12.43;;;9.60;;
22248;SDS011;67538;52.180;5.646;2024-02-26T01:07:03;15.47;;;9.73;;
22248;SDS011;67538;52.180;5.646;2024-02-26T01:09:30;12.33;;;9.20;;
22248;SDS011;67538;52.180;5.646;2024-02-26T01:11:59;14.10;;;9.83;;
22248;SDS011;67538;52.180;5.646;2024-02-26T01:14:27;12.63;;;9.50;;
22248;SDS011;67538;52.180;5.646;2024-02-26T01:16:54;15.37;;;9.87;;
22248;SDS011;67538;52.180;5.646;2024-02-26T01:19:21;16.90;;;10.60;;
22248;SDS011;67538;52.180;5.646;2024-02-26T01:21:49;16.30;;;9.70;;
22248;SDS011;67538;52.180;5.646;2024-02-26T01:24:16;14.33;;;9.93;;
22248;SDS011;67538;52.180;5.646;2024-02-26T01:26:43;15.27;;;10.27;;
22248;SDS011;67538;52.180;5.646;2024-02-26T01:29:11;15.53;;;10.30;;
22248;SDS011;67538;52.180;5.646;2024-02-26T01:31:39;15.73;;;9.63;;
22248;SDS011;67538;52.180;5.646;2024-02-26T01:34:06;15.40;;;10.30;;
22248;SDS011;67538;52.180;5.646;2024-02-26T01:36:33;15.33;;;9.90;;
22248;SDS011;67538;52.180;5.646;2024-02-26T01:39:01;15.27;;;10.03;;
22248;SDS011;67538;52.180;5.646;2024-02-26T01:41:28;14.53;;;9.70;;
22248;SDS011;67538;52.180;5.646;2024-02-26T01:43:55;15.93;;;10.50;;
22248;SDS011;67538;52.180;5.646;2024-02-26T01:46:24;22.97;;;10.57;;
22248;SDS011;67538;52.180;5.646;2024-02-26T01:48:51;16.33;;;10.60;;
22248;SDS011;67538;52.180;5.646;2024-02-26T01:51:18;15.93;;;10.50;;
22248;SDS011;67538;52.180;5.646;2024-02-26T01:53:46;13.83;;;10.33;;
22248;SDS011;67538;52.180;5.646;2024-02-26T01:56:13;13.80;;;9.37;;
22248;SDS011;67538;52.180;5.646;2024-02-26T01:58:42;18.17;;;10.47;;
22248;SDS011;67538;52.180;5.646;2024-02-26T02:01:10;16.67;;;10.83;;
22248;SDS011;67538;52.180;5.646;2024-02-26T02:03:39;14.53;;;9.60;;
22248;SDS011;67538;52.180;5.646;2024-02-26T02:06:06;18.63;;;10.90;;
22248;SDS011;67538;52.180;5.646;2024-02-26T02:08:34;15.90;;;10.23;;
22248;SDS011;67538;52.180;5.646;2024-02-26T02:11:02;14.87;;;9.80;;
22248;SDS011;67538;52.180;5.646;2024-02-26T02:13:29;18.40;;;10.37;;
22248;SDS011;67538;52.180;5.646;2024-02-26T02:15:56;17.73;;;10.20;;
22248;SDS011;67538;52.180;5.646;2024-02-26T02:18:24;18.33;;;10.27;;
22248;SDS011;67538;52.180;5.646;2024-02-26T02:20:52;14.67;;;10.50;;
22248;SDS011;67538;52.180;5.646;2024-02-26T02:23:21;14.17;;;9.87;;
22248;SDS011;67538;52.180;5.646;2024-02-26T02:25:48;17.50;;;9.17;;
22248;SDS011;67538;52.180;5.646;2024-02-26T02:28:15;15.43;;;10.40;;
22248;SDS011;67538;52.180;5.646;2024-02-26T02:30:42;17.57;;;10.33;;
22248;SDS011;67538;52.180;5.646;2024-02-26T02:33:10;15.40;;;9.97;;
22248;SDS011;67538;52.180;5.646;2024-02-26T02:35:37;15.67;;;9.70;;
22248;SDS011;67538;52.180;5.646;2024-02-26T02:38:06;16.60;;;9.93;;
22248;SDS011;67538;52.180;5.646;2024-02-26T02:40:33;17.33;;;10.60;;
22248;SDS011;67538;52.180;5.646;2024-02-26T02:43:00;15.97;;;10.40;;
22248;SDS011;67538;52.180;5.646;2024-02-26T02:45:27;16.97;;;10.80;;
22248;SDS011;67538;52.180;5.646;2024-02-26T02:47:54;16.90;;;10.10;;
22248;SDS011;67538;52.180;5.646;2024-02-26T02:50:21;16.23;;;11.07;;
22248;SDS011;67538;52.180;5.646;2024-02-26T02:52:48;22.00;;;10.73;;
22248;SDS011;67538;52.180;5.646;2024-02-26T02:55:17;18.20;;;10.77;;
22248;SDS011;67538;52.180;5.646;2024-02-26T02:57:44;16.27;;;10.50;;
22248;SDS011;67538;52.180;5.646;2024-02-26T03:00:12;16.97;;;10.53;;
22248;SDS011;67538;52.180;5.646;2024-02-26T03:02:39;17.10;;;11.23;;
22248;SDS011;67538;52.180;5.646;2024-02-26T03:05:08;15.83;;;10.93;;
22248;SDS011;67538;52.180;5.646;2024-02-26T03:07:35;17.30;;;11.10;;
22248;SDS011;67538;52.180;5.646;2024-02-26T03:10:02;20.70;;;12.03;;
22248;SDS011;67538;52.180;5.646;2024-02-26T03:12:31;16.23;;;10.80;;
22248;SDS011;67538;52.180;5.646;2024-02-26T03:14:58;16.97;;;11.23;;
22248;SDS011;67538;52.180;5.646;2024-02-26T03:17:27;18.47;;;11.83;;
22248;SDS011;67538;52.180;5.646;2024-02-26T03:19:55;20.70;;;11.50;;
22248;SDS011;67538;52.180;5.646;2024-02-26T03:22:22;18.37;;;11.73;;
22248;SDS011;67538;52.180;5.646;2024-02-26T03:24:49;20.47;;;11.60;;
22248;SDS011;67538;52.180;5.646;2024-02-26T03:27:16;17.97;;;11.50;;
22248;SDS011;67538;52.180;5.646;2024-02-26T03:29:44;18.93;;;11.77;;
22248;SDS011;67538;52.180;5.646;2024-02-26T03:32:13;17.67;;;11.63;;
22248;SDS011;67538;52.180;5.646;2024-02-26T03:34:40;19.97;;;12.07;;
22248;SDS011;67538;52.180;5.646;2024-02-26T03:37:07;17.50;;;12.03;;
22248;SDS011;67538;52.180;5.646;2024-02-26T03:39:35;19.50;;;12.07;;
22248;SDS011;67538;52.180;5.646;2024-02-26T03:42:02;17.97;;;10.97;;
22248;SDS011;67538;52.180;5.646;2024-02-26T03:44:30;19.57;;;11.83;;
22248;SDS011;67538;52.180;5.646;2024-02-26T03:46:58;19.80;;;12.17;;
22248;SDS011;67538;52.180;5.646;2024-02-26T03:49:25;18.73;;;11.87;;
22248;SDS011;67538;52.180;5.646;2024-02-26T03:51:53;19.27;;;12.63;;
22248;SDS011;67538;52.180;5.646;2024-02-26T03:54:21;20.73;;;11.80;;
22248;SDS011;67538;52.180;5.646;2024-02-26T03:56:48;21.37;;;12.03;;
22248;SDS011;67538;52.180;5.646;2024-02-26T03:59:15;22.70;;;12.60;;
22248;SDS011;67538;52.180;5.646;2024-02-26T04:01:44;21.00;;;11.93;;
22248;SDS011;67538;52.180;5.646;2024-02-26T04:04:14;19.60;;;12.47;;
22248;SDS011;67538;52.180;5.646;2024-02-26T04:06:44;19.30;;;12.27;;
22248;SDS011;67538;52.180;5.646;2024-02-26T04:09:11;20.23;;;12.10;;
22248;SDS011;67538;52.180;5.646;2024-02-26T04:11:38;18.37;;;12.37;;
22248;SDS011;67538;52.180;5.646;2024-02-26T04:14:05;18.07;;;11.17;;
22248;SDS011;67538;52.180;5.646;2024-02-26T04:16:33;16.67;;;11.57;;
22248;SDS011;67538;52.180;5.646;2024-02-26T04:19:00;20.93;;;11.83;;
22248;SDS011;67538;52.180;5.646;2024-02-26T04:21:29;19.23;;;12.03;;
22248;SDS011;67538;52.180;5.646;2024-02-26T04:23:56;19.47;;;11.67;;
22248;SDS011;67538;52.180;5.646;2024-02-26T04:26:26;18.50;;;11.73;;
22248;SDS011;67538;52.180;5.646;2024-02-26T04:28:53;17.30;;;11.00;;
22248;SDS011;67538;52.180;5.646;2024-02-26T04:31:20;19.33;;;11.97;;
22248;SDS011;67538;52.180;5.646;2024-02-26T04:33:48;20.67;;;11.87;;
22248;SDS011;67538;52.180;5.646;2024-02-26T04:36:15;14.87;;;10.73;;
22248;SDS011;67538;52.180;5.646;2024-02-26T04:38:44;18.13;;;11.50;;
22248;SDS011;67538;52.180;5.646;2024-02-26T04:41:11;19.90;;;11.40;;
22248;SDS011;67538;52.180;5.646;2024-02-26T04:43:38;20.60;;;12.23;;
22248;SDS011;67538;52.180;5.646;2024-02-26T04:46:06;19.07;;;12.03;;
22248;SDS011;67538;52.180;5.646;2024-02-26T04:48:34;19.20;;;11.53;;
22248;SDS011;67538;52.180;5.646;2024-02-26T04:51:01;19.13;;;11.00;;
22248;SDS011;67538;52.180;5.646;2024-02-26T04:53:29;20.87;;;12.13;;
22248;SDS011;67538;52.180;5.646;2024-02-26T04:55:57;17.63;;;11.57;;
22248;SDS011;67538;52.180;5.646;2024-02-26T04:58:25;18.87;;;12.73;;
22248;SDS011;67538;52.180;5.646;2024-02-26T05:00:52;22.30;;;12.30;;
22248;SDS011;67538;52.180;5.646;2024-02-26T05:03:19;18.43;;;12.30;;
22248;SDS011;67538;52.180;5.646;2024-02-26T05:05:46;19.57;;;12.10;;
22248;SDS011;67538;52.180;5.646;2024-02-26T05:08:13;22.77;;;12.60;;
22248;SDS011;67538;52.180;5.646;2024-02-26T05:10:40;20.23;;;12.30;;
22248;SDS011;67538;52.180;5.646;2024-02-26T05:13:09;21.67;;;12.50;;
22248;SDS011;67538;52.180;5.646;2024-02-26T05:15:37;19.70;;;12.20;;
22248;SDS011;67538;52.180;5.646;2024-02-26T05:18:04;20.40;;;12.40;;
22248;SDS011;67538;52.180;5.646;2024-02-26T05:20:32;18.03;;;11.93;;
22248;SDS011;67538;52.180;5.646;2024-02-26T05:23:01;22.87;;;13.63;;
22248;SDS011;67538;52.180;5.646;2024-02-26T05:25:28;24.20;;;13.27;;
22248;SDS011;67538;52.180;5.646;2024-02-26T05:27:55;21.27;;;13.70;;
22248;SDS011;67538;52.180;5.646;2024-02-26T05:30:24;21.30;;;12.60;;
22248;SDS011;67538;52.180;5.646;2024-02-26T05:32:52;22.00;;;12.73;;
22248;SDS011;67538;52.180;5.646;2024-02-26T05:35:19;21.93;;;14.07;;
22248;SDS011;67538;52.180;5.646;2024-02-26T05:37:46;23.20;;;13.20;;
22248;SDS011;67538;52.180;5.646;2024-02-26T05:40:13;21.13;;;13.07;;
22248;SDS011;67538;52.180;5.646;2024-02-26T05:42:40;21.73;;;13.73;;
22248;SDS011;67538;52.180;5.646;2024-02-26T05:45:10;23.97;;;13.93;;
22248;SDS011;67538;52.180;5.646;2024-02-26T05:47:38;23.10;;;13.20;;
22248;SDS011;67538;52.180;5.646;2024-02-26T05:50:08;20.87;;;13.37;;
22248;SDS011;67538;52.180;5.646;2024-02-26T05:52:36;23.47;;;14.10;;
22248;SDS011;67538;52.180;5.646;2024-02-26T05:55:04;25.67;;;13.70;;
22248;SDS011;67538;52.180;5.646;2024-02-26T05:57:31;27.63;;;14.10;;
22248;SDS011;67538;52.180;5.646;2024-02-26T05:59:59;22.87;;;13.13;;
22248;SDS011;67538;52.180;5.646;2024-02-26T06:02:29;25.70;;;14.43;;
22248;SDS011;67538;52.180;5.646;2024-02-26T06:04:57;24.13;;;13.93;;
22248;SDS011;67538;52.180;5.646;2024-02-26T06:07:24;22.90;;;13.60;;
22248;SDS011;67538;52.180;5.646;2024-02-26T06:09:52;23.07;;;14.57;;
22248;SDS011;67538;52.180;5.646;2024-02-26T06:12:19;25.77;;;14.63;;
22248;SDS011;67538;52.180;5.646;2024-02-26T06:14:46;25.10;;;14.40;;
22248;SDS011;67538;52.180;5.646;2024-02-26T06:17:13;27.33;;;14.37;;
22248;SDS011;67538;52.180;5.646;2024-02-26T06:19:41;26.63;;;14.27;;
22248;SDS011;67538;52.180;5.646;2024-02-26T06:22:09;26.80;;;14.53;;
22248;SDS011;67538;52.180;5.646;2024-02-26T06:24:37;26.33;;;14.70;;
22248;SDS011;67538;52.180;5.646;2024-02-26T06:27:06;26.10;;;14.50;;
22248;SDS011;67538;52.180;5.646;2024-02-26T06:29:33;28.73;;;15.33;;
22248;SDS011;67538;52.180;5.646;2024-02-26T06:32:00;28.03;;;14.60;;
22248;SDS011;67538;52.180;5.646;2024-02-26T06:34:27;24.80;;;14.00;;
22248;SDS011;67538;52.180;5.646;2024-02-26T06:36:54;27.47;;;15.13;;
22248;SDS011;67538;52.180;5.646;2024-02-26T06:39:23;30.57;;;15.20;;
22248;SDS011;67538;52.180;5.646;2024-02-26T06:41:50;29.80;;;15.37;;
22248;SDS011;67538;52.180;5.646;2024-02-26T06:44:23;29.70;;;15.17;;
22248;SDS011;67538;52.180;5.646;2024-02-26T06:46:51;33.40;;;15.80;;
22248;SDS011;67538;52.180;5.646;2024-02-26T06:49:18;30.37;;;15.63;;
22248;SDS011;67538;52.180;5.646;2024-02-26T06:51:45;30.83;;;16.00;;
22248;SDS011;67538;52.180;5.646;2024-02-26T06:54:12;31.43;;;15.67;;
22248;SDS011;67538;52.180;5.646;2024-02-26T06:56:40;30.67;;;16.27;;
22248;SDS011;67538;52.180;5.646;2024-02-26T06:59:07;33.27;;;16.83;;
22248;SDS011;67538;52.180;5.646;2024-02-26T07:01:34;36.93;;;16.97;;
22248;SDS011;67538;52.180;5.646;2024-02-26T07:04:01;36.63;;;17.60;;
22248;SDS011;67538;52.180;5.646;2024-02-26T07:06:29;36.50;;;17.50;;
22248;SDS011;67538;52.180;5.646;2024-02-26T07:08:56;37.13;;;18.57;;
22248;SDS011;67538;52.180;5.646;2024-02-26T07:11:23;34.33;;;17.13;;
22248;SDS011;67538;52.180;5.646;2024-02-26T07:13:51;39.33;;;18.50;;
22248;SDS011;67538;52.180;5.646;2024-02-26T07:16:18;36.57;;;19.03;;
22248;SDS011;67538;52.180;5.646;2024-02-26T07:18:45;38.80;;;18.07;;
22248;SDS011;67538;52.180;5.646;2024-02-26T07:21:12;41.23;;;19.30;;
22248;SDS011;67538;52.180;5.646;2024-02-26T07:23:39;38.67;;;18.20;;
22248;SDS011;67538;52.180;5.646;2024-02-26T07:26:07;35.87;;;18.27;;
22248;SDS011;67538;52.180;5.646;2024-02-26T07:28:36;39.43;;;19.23;;
22248;SDS011;67538;52.180;5.646;2024-02-26T07:31:05;39.40;;;19.50;;
22248;SDS011;67538;52.180;5.646;2024-02-26T07:33:32;44.53;;;19.57;;
22248;SDS011;67538;52.180;5.646;2024-02-26T07:35:59;41.03;;;19.90;;
22248;SDS011;67538;52.180;5.646;2024-02-26T07:38:26;42.80;;;20.47;;
22248;SDS011;67538;52.180;5.646;2024-02-26T07:40:53;41.47;;;20.73;;
22248;SDS011;67538;52.180;5.646;2024-02-26T07:43:22;41.07;;;19.70;;
22248;SDS011;67538;52.180;5.646;2024-02-26T07:45:49;47.57;;;20.20;;
22248;SDS011;67538;52.180;5.646;2024-02-26T07:48:17;40.43;;;20.43;;
22248;SDS011;67538;52.180;5.646;2024-02-26T07:50:44;41.17;;;20.87;;
22248;SDS011;67538;52.180;5.646;2024-02-26T07:53:11;39.83;;;20.50;;
22248;SDS011;67538;52.180;5.646;2024-02-26T07:55:39;39.27;;;20.07;;
22248;SDS011;67538;52.180;5.646;2024-02-26T07:58:06;40.63;;;20.07;;
22248;SDS011;67538;52.180;5.646;2024-02-26T08:00:34;39.47;;;18.83;;
22248;SDS011;67538;52.180;5.646;2024-02-26T08:03:01;36.10;;;19.07;;
22248;SDS011;67538;52.180;5.646;2024-02-26T08:05:29;34.57;;;19.20;;
22248;SDS011;67538;52.180;5.646;2024-02-26T08:07:56;34.80;;;18.30;;
22248;SDS011;67538;52.180;5.646;2024-02-26T08:10:23;37.70;;;19.10;;
22248;SDS011;67538;52.180;5.646;2024-02-26T08:12:50;35.13;;;18.60;;
22248;SDS011;67538;52.180;5.646;2024-02-26T08:15:18;35.20;;;17.23;;
22248;SDS011;67538;52.180;5.646;2024-02-26T08:17:45;32.80;;;17.50;;
22248;SDS011;67538;52.180;5.646;2024-02-26T08:20:12;37.13;;;16.77;;
22248;SDS011;67538;52.180;5.646;2024-02-26T08:22:41;30.57;;;16.73;;
22248;SDS011;67538;52.180;5.646;2024-02-26T08:25:08;31.30;;;16.27;;
22248;SDS011;67538;52.180;5.646;2024-02-26T08:27:36;27.70;;;15.10;;
22248;SDS011;67538;52.180;5.646;2024-02-26T08:30:03;26.27;;;15.07;;
22248;SDS011;67538;52.180;5.646;2024-02-26T08:32:32;28.53;;;15.40;;
22248;SDS011;67538;52.180;5.646;2024-02-26T08:34:59;29.60;;;14.40;;
22248;SDS011;67538;52.180;5.646;2024-02-26T08:37:26;26.83;;;14.03;;
22248;SDS011;67538;52.180;5.646;2024-02-26T08:39:55;30.50;;;14.10;;
22248;SDS011;67538;52.180;5.646;2024-02-26T08:42:22;21.93;;;13.00;;
22248;SDS011;67538;52.180;5.646;2024-02-26T08:44:49;22.73;;;13.93;;
22248;SDS011;67538;52.180;5.646;2024-02-26T08:47:16;23.83;;;13.67;;
22248;SDS011;67538;52.180;5.646;2024-02-26T08:49:44;21.20;;;12.00;;
22248;SDS011;67538;52.180;5.646;2024-02-26T08:52:11;20.47;;;12.27;;
22248;SDS011;67538;52.180;5.646;2024-02-26T08:54:38;20.50;;;13.03;;
22248;SDS011;67538;52.180;5.646;2024-02-26T08:57:07;23.53;;;12.70;;
22248;SDS011;67538;52.180;5.646;2024-02-26T08:59:34;21.63;;;12.70;;
22248;SDS011;67538;52.180;5.646;2024-02-26T09:02:02;20.83;;;11.93;;
22248;SDS011;67538;52.180;5.646;2024-02-26T09:04:29;26.57;;;12.47;;
22248;SDS011;67538;52.180;5.646;2024-02-26T09:06:56;21.60;;;12.07;;
22248;SDS011;67538;52.180;5.646;2024-02-26T09:09:23;20.10;;;11.57;;
22248;SDS011;67538;52.180;5.646;2024-02-26T09:11:51;19.10;;;11.97;;
22248;SDS011;67538;52.180;5.646;2024-02-26T09:14:21;21.17;;;11.90;;
22248;SDS011;67538;52.180;5.646;2024-02-26T09:16:49;18.17;;;11.37;;
22248;SDS011;67538;52.180;5.646;2024-02-26T09:19:16;18.13;;;10.90;;
22248;SDS011;67538;52.180;5.646;2024-02-26T09:21:43;16.40;;;11.07;;
22248;SDS011;67538;52.180;5.646;2024-02-26T09:24:11;15.53;;;10.30;;
22248;SDS011;67538;52.180;5.646;2024-02-26T09:26:38;18.33;;;11.33;;
22248;SDS011;67538;52.180;5.646;2024-02-26T09:29:05;17.67;;;10.33;;
22248;SDS011;67538;52.180;5.646;2024-02-26T09:31:34;18.27;;;11.43;;
22248;SDS011;67538;52.180;5.646;2024-02-26T09:34:01;16.20;;;10.07;;
22248;SDS011;67538;52.180;5.646;2024-02-26T09:36:29;18.10;;;10.37;;
22248;SDS011;67538;52.180;5.646;2024-02-26T09:38:57;16.80;;;10.20;;
22248;SDS011;67538;52.180;5.646;2024-02-26T09:41:24;18.90;;;10.90;;
22248;SDS011;67538;52.180;5.646;2024-02-26T09:43:56;14.70;;;9.57;;
22248;SDS011;67538;52.180;5.646;2024-02-26T09:46:24;14.13;;;9.53;;
22248;SDS011;67538;52.180;5.646;2024-02-26T09:48:53;19.10;;;10.30;;
22248;SDS011;67538;52.180;5.646;2024-02-26T09:51:21;15.87;;;8.83;;
22248;SDS011;67538;52.180;5.646;2024-02-26T09:53:51;15.47;;;9.30;;
22248;SDS011;67538;52.180;5.646;2024-02-26T09:56:19;14.50;;;8.90;;
22248;SDS011;67538;52.180;5.646;2024-02-26T09:58:47;15.00;;;9.63;;
22248;SDS011;67538;52.180;5.646;2024-02-26T10:01:19;14.97;;;9.43;;
22248;SDS011;67538;52.180;5.646;2024-02-26T10:03:52;15.40;;;9.83;;
22248;SDS011;67538;52.180;5.646;2024-02-26T10:06:23;15.53;;;9.03;;
22248;SDS011;67538;52.180;5.646;2024-02-26T10:08:52;14.97;;;9.20;;
22248;SDS011;67538;52.180;5.646;2024-02-26T10:11:20;16.07;;;9.37;;
22248;SDS011;67538;52.180;5.646;2024-02-26T10:13:50;15.10;;;9.30;;
22248;SDS011;67538;52.180;5.646;2024-02-26T10:16:17;15.10;;;9.27;;
22248;SDS011;67538;52.180;5.646;2024-02-26T10:18:45;16.67;;;9.47;;
22248;SDS011;67538;52.180;5.646;2024-02-26T10:21:14;14.87;;;9.40;;
22248;SDS011;67538;52.180;5.646;2024-02-26T10:23:43;15.80;;;9.53;;
22248;SDS011;67538;52.180;5.646;2024-02-26T10:26:10;15.47;;;9.37;;
22248;SDS011;67538;52.180;5.646;2024-02-26T10:28:39;16.63;;;9.67;;
22248;SDS011;67538;52.180;5.646;2024-02-26T10:31:06;14.67;;;9.33;;
22248;SDS011;67538;52.180;5.646;2024-02-26T10:33:33;15.30;;;9.00;;
22248;SDS011;67538;52.180;5.646;2024-02-26T10:36:02;14.13;;;8.30;;
22248;SDS011;67538;52.180;5.646;2024-02-26T10:38:31;16.23;;;8.43;;
22248;SDS011;67538;52.180;5.646;2024-02-26T10:40:59;11.70;;;8.27;;
22248;SDS011;67538;52.180;5.646;2024-02-26T10:43:27;15.50;;;9.30;;
22248;SDS011;67538;52.180;5.646;2024-02-26T10:45:57;14.77;;;8.73;;
22248;SDS011;67538;52.180;5.646;2024-02-26T10:48:24;14.13;;;8.57;;
22248;SDS011;67538;52.180;5.646;2024-02-26T10:50:51;16.70;;;9.03;;
22248;SDS011;67538;52.180;5.646;2024-02-26T10:53:20;12.77;;;8.17;;
22248;SDS011;67538;52.180;5.646;2024-02-26T10:55:53;13.10;;;7.73;;
22248;SDS011;67538;52.180;5.646;2024-02-26T10:58:23;15.73;;;8.83;;
22248;SDS011;67538;52.180;5.646;2024-02-26T11:00:51;13.13;;;8.50;;
22248;SDS011;67538;52.180;5.646;2024-02-26T11:03:19;14.23;;;9.03;;
22248;SDS011;67538;52.180;5.646;2024-02-26T11:05:48;14.77;;;8.67;;
22248;SDS011;67538;52.180;5.646;2024-02-26T11:08:15;15.13;;;8.37;;
22248;SDS011;67538;52.180;5.646;2024-02-26T11:10:44;14.30;;;8.97;;
22248;SDS011;67538;52.180;5.646;2024-02-26T11:13:15;14.63;;;8.27;;
22248;SDS011;67538;52.180;5.646;2024-02-26T11:15:45;14.73;;;8.47;;
22248;SDS011;67538;52.180;5.646;2024-02-26T11:18:13;13.40;;;8.30;;
22248;SDS011;67538;52.180;5.646;2024-02-26T11:20:42;15.60;;;9.03;;
22248;SDS011;67538;52.180;5.646;2024-02-26T11:23:09;15.03;;;8.57;;
22248;SDS011;67538;52.180;5.646;2024-02-26T11:25:36;14.23;;;8.23;;
22248;SDS011;67538;52.180;5.646;2024-02-26T11:28:05;15.80;;;9.80;;
22248;SDS011;67538;52.180;5.646;2024-02-26T11:30:37;17.30;;;8.40;;
22248;SDS011;67538;52.180;5.646;2024-02-26T11:33:07;14.07;;;8.93;;
22248;SDS011;67538;52.180;5.646;2024-02-26T11:35:36;12.67;;;8.23;;
22248;SDS011;67538;52.180;5.646;2024-02-26T11:38:03;13.83;;;8.63;;
22248;SDS011;67538;52.180;5.646;2024-02-26T11:40:31;16.03;;;8.70;;
22248;SDS011;67538;52.180;5.646;2024-02-26T11:42:59;13.57;;;8.27;;
22248;SDS011;67538;52.180;5.646;2024-02-26T11:48:22;15.37;;;8.67;;
22248;SDS011;67538;52.180;5.646;2024-02-26T11:50:52;17.60;;;9.90;;
22248;SDS011;67538;52.180;5.646;2024-02-26T11:53:21;13.47;;;8.90;;
22248;SDS011;67538;52.180;5.646;2024-02-26T11:59:00;16.53;;;9.50;;
22248;SDS011;67538;52.180;5.646;2024-02-26T12:01:37;15.30;;;9.30;;
22248;SDS011;67538;52.180;5.646;2024-02-26T12:04:05;16.43;;;9.70;;
22248;SDS011;67538;52.180;5.646;2024-02-26T12:06:39;15.03;;;9.13;;
22248;SDS011;67538;52.180;5.646;2024-02-26T12:09:08;15.50;;;9.40;;
22248;SDS011;67538;52.180;5.646;2024-02-26T12:11:37;15.37;;;9.17;;
22248;SDS011;67538;52.180;5.646;2024-02-26T12:14:05;14.23;;;9.33;;
22248;SDS011;67538;52.180;5.646;2024-02-26T12:16:34;19.60;;;9.03;;
22248;SDS011;67538;52.180;5.646;2024-02-26T12:19:08;14.43;;;9.07;;
22248;SDS011;67538;52.180;5.646;2024-02-26T12:21:36;15.97;;;9.13;;
22248;SDS011;67538;52.180;5.646;2024-02-26T12:24:07;12.73;;;8.63;;
22248;SDS011;67538;52.180;5.646;2024-02-26T12:26:37;15.30;;;8.63;;
22248;SDS011;67538;52.180;5.646;2024-02-26T12:29:05;15.23;;;9.33;;
22248;SDS011;67538;52.180;5.646;2024-02-26T12:31:32;13.40;;;9.03;;
22248;SDS011;67538;52.180;5.646;2024-02-26T12:34:03;15.20;;;9.03;;
22248;SDS011;67538;52.180;5.646;2024-02-26T12:36:31;13.73;;;8.80;;
22248;SDS011;67538;52.180;5.646;2024-02-26T12:39:00;15.00;;;8.80;;
22248;SDS011;67538;52.180;5.646;2024-02-26T12:41:27;15.40;;;9.37;;
22248;SDS011;67538;52.180;5.646;2024-02-26T12:43:55;15.03;;;8.93;;
22248;SDS011;67538;52.180;5.646;2024-02-26T12:46:23;14.43;;;9.47;;
22248;SDS011;67538;52.180;5.646;2024-02-26T12:48:50;14.60;;;8.83;;
22248;SDS011;67538;52.180;5.646;2024-02-26T12:51:20;14.93;;;9.13;;
22248;SDS011;67538;52.180;5.646;2024-02-26T12:53:48;14.50;;;8.80;;
22248;SDS011;67538;52.180;5.646;2024-02-26T12:56:17;13.50;;;8.97;;
22248;SDS011;67538;52.180;5.646;2024-02-26T12:58:45;15.90;;;9.20;;
22248;SDS011;67538;52.180;5.646;2024-02-26T13:01:14;14.53;;;8.80;;
22248;SDS011;67538;52.180;5.646;2024-02-26T13:03:44;14.97;;;9.43;;
22248;SDS011;67538;52.180;5.646;2024-02-26T13:06:11;12.67;;;8.67;;
22248;SDS011;67538;52.180;5.646;2024-02-26T13:08:40;15.83;;;8.50;;
22248;SDS011;67538;52.180;5.646;2024-02-26T13:11:08;12.10;;;8.17;;
22248;SDS011;67538;52.180;5.646;2024-02-26T13:13:35;13.63;;;8.93;;
22248;SDS011;67538;52.180;5.646;2024-02-26T13:16:02;14.50;;;9.13;;
22248;SDS011;67538;52.180;5.646;2024-02-26T13:18:31;14.93;;;9.00;;
22248;SDS011;67538;52.180;5.646;2024-02-26T13:21:07;14.37;;;9.17;;
22248;SDS011;67538;52.180;5.646;2024-02-26T13:23:36;14.23;;;8.87;;
22248;SDS011;67538;52.180;5.646;2024-02-26T13:26:05;15.40;;;8.77;;
22248;SDS011;67538;52.180;5.646;2024-02-26T13:28:33;15.20;;;9.40;;
22248;SDS011;67538;52.180;5.646;2024-02-26T13:31:01;15.57;;;8.93;;
22248;SDS011;67538;52.180;5.646;2024-02-26T13:33:30;14.37;;;9.10;;
22248;SDS011;67538;52.180;5.646;2024-02-26T13:35:58;15.87;;;9.73;;
22248;SDS011;67538;52.180;5.646;2024-02-26T13:38:26;19.60;;;10.57;;
22248;SDS011;67538;52.180;5.646;2024-02-26T13:40:53;14.77;;;9.43;;
22248;SDS011;67538;52.180;5.646;2024-02-26T13:43:22;12.83;;;8.50;;
22248;SDS011;67538;52.180;5.646;2024-02-26T13:45:50;15.37;;;8.60;;
22248;SDS011;67538;52.180;5.646;2024-02-26T13:48:17;16.27;;;8.67;;
22248;SDS011;67538;52.180;5.646;2024-02-26T13:50:44;14.13;;;8.70;;
22248;SDS011;67538;52.180;5.646;2024-02-26T13:53:13;15.43;;;8.70;;
22248;SDS011;67538;52.180;5.646;2024-02-26T13:55:41;13.70;;;9.17;;
22248;SDS011;67538;52.180;5.646;2024-02-26T13:58:08;13.17;;;8.27;;
22248;SDS011;67538;52.180;5.646;2024-02-26T14:00:40;13.10;;;8.73;;
22248;SDS011;67538;52.180;5.646;2024-02-26T14:03:07;12.93;;;8.40;;
22248;SDS011;67538;52.180;5.646;2024-02-26T14:05:34;12.90;;;8.37;;
22248;SDS011;67538;52.180;5.646;2024-02-26T14:08:02;14.37;;;9.10;;
22248;SDS011;67538;52.180;5.646;2024-02-26T14:10:29;13.77;;;8.87;;
22248;SDS011;67538;52.180;5.646;2024-02-26T14:12:57;14.23;;;8.30;;
22248;SDS011;67538;52.180;5.646;2024-02-26T14:15:24;11.97;;;8.13;;
22248;SDS011;67538;52.180;5.646;2024-02-26T14:17:52;12.57;;;8.03;;
22248;SDS011;67538;52.180;5.646;2024-02-26T14:20:21;12.20;;;7.67;;
22248;SDS011;67538;52.180;5.646;2024-02-26T14:22:49;11.13;;;7.13;;
22248;SDS011;67538;52.180;5.646;2024-02-26T14:25:17;12.03;;;7.40;;
22248;SDS011;67538;52.180;5.646;2024-02-26T14:27:44;13.00;;;7.90;;
22248;SDS011;67538;52.180;5.646;2024-02-26T14:30:12;13.10;;;7.33;;
22248;SDS011;67538;52.180;5.646;2024-02-26T14:32:40;12.60;;;7.80;;
22248;SDS011;67538;52.180;5.646;2024-02-26T14:35:08;11.03;;;7.67;;
22248;SDS011;67538;52.180;5.646;2024-02-26T14:37:36;9.83;;;7.10;;